Time;durP1;ratioP1;P1;durP2;ratioP2;P2;SDS_P1;SDS_P2;PMS_P1;PMS_P2;Temp;Humidity;BMP_temperature;BMP_pressure;BME280_temperature;BME280_humidity;BME280_pressure;Samples;Min_cycle;Max_cycle;Signal;HPM_P1;HPM_P2
2023/12/13 00:01:45;;;;;;;5.38;1.45;;;;;;;;;;5009742;27;89952;-83
2023/12/13 00:04:12;;;;;;;5.43;1.70;;;;;;;;;;5048686;28;89397;-82
2023/12/13 00:06:38;;;;;;;5.25;1.42;;;;;;;;;;5037534;28;88813;-81
2023/12/13 00:09:08;;;;;;;5.47;1.40;;;;;;;;;;5025078;28;89533;-80
2023/12/13 00:11:34;;;;;;;5.88;1.35;;;;;;;;;;5041435;28;91774;-80
2023/12/13 00:14:01;;;;;;;3.80;1.40;;;;;;;;;;5024588;27;88478;-82
2023/12/13 00:16:28;;;;;;;3.25;1.30;;;;;;;;;;5031228;28;87709;-82
2023/12/13 00:18:54;;;;;;;3.20;1.30;;;;;;;;;;5034392;28;87998;-81
2023/12/13 00:21:21;;;;;;;3.40;1.20;;;;;;;;;;5024742;28;90759;-81
2023/12/13 00:23:47;;;;;;;4.93;1.42;;;;;;;;;;5040212;27;87688;-81
2023/12/13 00:26:17;;;;;;;3.40;1.25;;;;;;;;;;5028817;28;90660;-83
2023/12/13 00:28:44;;;;;;;4.85;1.30;;;;;;;;;;5025398;27;87776;-81
2023/12/13 00:31:11;;;;;;;5.78;1.58;;;;;;;;;;5026231;27;89022;-82
2023/12/13 00:33:38;;;;;;;3.60;1.45;;;;;;;;;;5025756;28;93867;-85
2023/12/13 00:36:05;;;;;;;4.35;1.20;;;;;;;;;;5029276;28;93984;-85
2023/12/13 00:38:32;;;;;;;4.25;1.40;;;;;;;;;;5039739;27;88292;-87
2023/12/13 00:40:59;;;;;;;2.42;1.20;;;;;;;;;;5014669;28;89803;-86
2023/12/13 00:43:26;;;;;;;2.67;1.10;;;;;;;;;;4988404;28;89757;-86
2023/12/13 00:45:52;;;;;;;3.70;1.27;;;;;;;;;;4987536;28;90380;-85
2023/12/13 00:48:19;;;;;;;2.75;1.10;;;;;;;;;;5008303;28;90954;-86
2023/12/13 00:50:46;;;;;;;4.13;1.48;;;;;;;;;;5007198;27;89951;-86
2023/12/13 00:53:13;;;;;;;2.88;1.30;;;;;;;;;;5019571;28;92952;-84
2023/12/13 00:55:39;;;;;;;2.92;1.33;;;;;;;;;;5026574;27;87970;-83
2023/12/13 00:58:06;;;;;;;5.13;1.25;;;;;;;;;;5025750;27;89064;-84
2023/12/13 01:00:32;;;;;;;3.53;1.42;;;;;;;;;;5031752;27;88800;-86
2023/12/13 01:02:59;;;;;;;3.42;1.40;;;;;;;;;;5025255;28;89252;-86
2023/12/13 01:05:26;;;;;;;3.65;1.33;;;;;;;;;;5050581;27;90387;-86
2023/12/13 01:07:52;;;;;;;2.00;1.17;;;;;;;;;;5024904;27;88860;-86
2023/12/13 01:10:20;;;;;;;2.47;1.33;;;;;;;;;;5042197;28;89198;-84
2023/12/13 01:12:47;;;;;;;2.40;1.30;;;;;;;;;;5036375;27;88852;-85
2023/12/13 01:15:13;;;;;;;2.28;1.23;;;;;;;;;;5015558;28;89399;-84
2023/12/13 01:17:40;;;;;;;4.22;1.35;;;;;;;;;;5040681;27;90043;-85
2023/12/13 01:20:09;;;;;;;3.85;1.30;;;;;;;;;;5024058;28;90817;-84
2023/12/13 01:22:36;;;;;;;3.97;1.50;;;;;;;;;;5007395;28;89577;-84
2023/12/13 01:25:03;;;;;;;3.58;1.27;;;;;;;;;;5035537;28;94769;-85
2023/12/13 01:27:30;;;;;;;3.97;1.38;;;;;;;;;;5029317;27;91182;-84
2023/12/13 01:29:57;;;;;;;3.25;1.35;;;;;;;;;;5008981;27;89219;-84
2023/12/13 01:32:23;;;;;;;3.38;1.38;;;;;;;;;;5042986;27;88033;-84
2023/12/13 01:34:50;;;;;;;3.28;1.40;;;;;;;;;;5024817;28;89039;-85
2023/12/13 01:37:17;;;;;;;3.13;1.30;;;;;;;;;;5038226;28;90539;-85
2023/12/13 01:39:43;;;;;;;2.63;1.33;;;;;;;;;;5026986;28;90394;-85
2023/12/13 01:42:10;;;;;;;4.45;1.40;;;;;;;;;;5026150;28;87796;-84
2023/12/13 01:44:38;;;;;;;3.22;1.30;;;;;;;;;;5023760;28;88007;-84
2023/12/13 01:47:05;;;;;;;3.40;1.40;;;;;;;;;;4995491;28;91078;-85
2023/12/13 01:49:31;;;;;;;4.10;1.27;;;;;;;;;;5021819;28;88039;-85
2023/12/13 01:51:58;;;;;;;4.20;1.40;;;;;;;;;;5028938;27;88243;-85
2023/12/13 01:54:25;;;;;;;3.70;1.30;;;;;;;;;;5026399;27;87623;-85
2023/12/13 01:56:52;;;;;;;3.15;1.38;;;;;;;;;;5017249;28;90915;-85
2023/12/13 01:59:18;;;;;;;5.10;1.40;;;;;;;;;;5012356;27;88770;-86
2023/12/13 02:01:45;;;;;;;4.40;1.40;;;;;;;;;;5004642;28;88027;-84
2023/12/13 02:04:13;;;;;;;4.68;1.40;;;;;;;;;;5004195;28;90689;-83
2023/12/13 02:06:41;;;;;;;4.70;1.35;;;;;;;;;;5003605;28;88618;-83
2023/12/13 02:09:08;;;;;;;5.63;1.35;;;;;;;;;;5004847;28;89013;-82
2023/12/13 02:11:35;;;;;;;4.45;1.33;;;;;;;;;;5014451;28;90509;-84
2023/12/13 02:14:02;;;;;;;5.45;1.42;;;;;;;;;;5026378;27;88282;-84
2023/12/13 02:16:29;;;;;;;4.18;1.40;;;;;;;;;;5026023;27;88151;-83
2023/12/13 02:18:56;;;;;;;5.18;1.40;;;;;;;;;;5023829;28;90132;-85
2023/12/13 02:21:24;;;;;;;3.38;1.15;;;;;;;;;;5023630;28;89514;-85
2023/12/13 02:23:53;;;;;;;5.20;1.23;;;;;;;;;;5023113;27;90070;-85
2023/12/13 02:26:20;;;;;;;3.47;1.20;;;;;;;;;;5025244;27;89174;-84
2023/12/13 02:28:47;;;;;;;4.65;1.23;;;;;;;;;;5025251;27;87412;-84
2023/12/13 02:31:16;;;;;;;5.38;1.40;;;;;;;;;;5023599;28;88089;-85
2023/12/13 02:33:43;;;;;;;3.67;1.15;;;;;;;;;;5019510;28;89718;-85
2023/12/13 02:36:10;;;;;;;;;;;;;;;;;;5021870;28;88939;-84
2023/12/13 02:38:36;;;;;;;4.43;1.38;;;;;;;;;;5006260;28;92480;-84
2023/12/13 02:41:03;;;;;;;2.38;1.30;;;;;;;;;;5024398;28;94220;-83
2023/12/13 02:43:30;;;;;;;5.22;1.38;;;;;;;;;;5040182;27;88396;-82
2023/12/13 02:45:57;;;;;;;2.95;1.20;;;;;;;;;;5042279;27;88310;-82
2023/12/13 02:48:24;;;;;;;4.32;1.20;;;;;;;;;;5045305;27;87723;-84
2023/12/13 02:50:52;;;;;;;3.97;1.23;;;;;;;;;;5043432;27;88085;-83
2023/12/13 02:53:19;;;;;;;2.75;1.20;;;;;;;;;;5043207;27;90026;-84
2023/12/13 02:55:46;;;;;;;5.85;1.30;;;;;;;;;;5042297;27;87863;-84
2023/12/13 02:58:14;;;;;;;5.55;1.50;;;;;;;;;;5025733;28;90290;-84
2023/12/13 03:00:41;;;;;;;4.78;1.33;;;;;;;;;;5021779;28;88422;-84
2023/12/13 03:03:08;;;;;;;4.25;1.40;;;;;;;;;;5037046;27;88678;-84
2023/12/13 03:05:34;;;;;;;4.78;1.50;;;;;;;;;;5027078;28;90582;-84
2023/12/13 03:08:01;;;;;;;3.60;1.30;;;;;;;;;;5039222;27;89020;-84
2023/12/13 03:10:28;;;;;;;3.63;1.27;;;;;;;;;;5029497;28;90014;-83
2023/12/13 03:12:55;;;;;;;4.65;1.42;;;;;;;;;;5026863;28;90178;-84
2023/12/13 03:15:21;;;;;;;3.55;1.30;;;;;;;;;;5042413;27;89041;-84
2023/12/13 03:17:48;;;;;;;6.38;1.40;;;;;;;;;;5026450;27;90739;-83
2023/12/13 03:20:15;;;;;;;2.35;1.02;;;;;;;;;;5046116;28;91031;-84
2023/12/13 03:22:42;;;;;;;2.75;1.20;;;;;;;;;;5044635;27;88268;-85
2023/12/13 03:25:08;;;;;;;3.17;1.30;;;;;;;;;;5029109;28;90734;-83
2023/12/13 03:27:35;;;;;;;5.18;1.23;;;;;;;;;;5030155;27;89358;-84
2023/12/13 03:30:04;;;;;;;3.78;1.30;;;;;;;;;;5046722;27;87979;-83
2023/12/13 03:32:30;;;;;;;3.78;1.10;;;;;;;;;;5047963;27;87963;-84
2023/12/13 03:34:57;;;;;;;2.70;1.30;;;;;;;;;;5047600;27;87674;-84
2023/12/13 03:37:24;;;;;;;3.10;1.15;;;;;;;;;;5029495;28;90816;-83
2023/12/13 03:39:50;;;;;;;4.50;1.30;;;;;;;;;;5044778;27;90803;-85
2023/12/13 03:42:17;;;;;;;4.18;1.23;;;;;;;;;;5049306;27;86795;-84
2023/12/13 03:44:44;;;;;;;4.40;1.10;;;;;;;;;;5046522;27;88592;-83
2023/12/13 03:47:10;;;;;;;4.40;1.30;;;;;;;;;;5048106;27;88076;-82
2023/12/13 03:49:37;;;;;;;2.75;1.13;;;;;;;;;;5045433;27;90373;-84
2023/12/13 03:52:04;;;;;;;4.22;1.40;;;;;;;;;;5047709;27;92614;-83
2023/12/13 03:54:30;;;;;;;2.88;1.10;;;;;;;;;;5047487;27;87873;-84
2023/12/13 03:56:57;;;;;;;2.90;1.20;;;;;;;;;;5035930;27;88810;-84
2023/12/13 03:59:23;;;;;;;3.85;1.50;;;;;;;;;;5024560;28;90802;-83
2023/12/13 04:01:50;;;;;;;2.95;1.20;;;;;;;;;;5030028;28;87703;-83
2023/12/13 04:04:16;;;;;;;4.35;1.20;;;;;;;;;;5025623;28;91664;-85
2023/12/13 04:06:43;;;;;;;4.20;1.30;;;;;;;;;;5010685;28;89795;-86
2023/12/13 04:09:09;;;;;;;6.40;1.33;;;;;;;;;;5039133;28;88113;-84
2023/12/13 04:11:36;;;;;;;3.40;1.25;;;;;;;;;;5047644;27;88881;-84
2023/12/13 04:14:03;;;;;;;2.45;1.20;;;;;;;;;;5045177;27;90479;-85
2023/12/13 04:16:29;;;;;;;6.60;1.35;;;;;;;;;;5046038;27;92812;-82
2023/12/13 04:18:56;;;;;;;4.85;1.45;;;;;;;;;;5028333;28;91052;-83
2023/12/13 04:21:23;;;;;;;6.20;1.30;;;;;;;;;;5046252;27;87552;-83
2023/12/13 04:23:49;;;;;;;4.60;1.67;;;;;;;;;;5031524;27;91866;-82
2023/12/13 04:26:16;;;;;;;3.92;1.13;;;;;;;;;;5046707;27;87782;-82
2023/12/13 04:28:42;;;;;;;4.07;1.30;;;;;;;;;;5046949;27;89038;-83
2023/12/13 04:31:09;;;;;;;3.92;1.20;;;;;;;;;;5046159;27;90398;-84
2023/12/13 04:33:35;;;;;;;4.88;1.40;;;;;;;;;;5028875;28;89039;-84
2023/12/13 04:36:02;;;;;;;4.63;1.40;;;;;;;;;;5045968;27;87974;-83
2023/12/13 04:38:29;;;;;;;5.35;1.70;;;;;;;;;;5046385;27;89515;-84
2023/12/13 04:40:55;;;;;;;5.07;1.42;;;;;;;;;;5045251;28;87934;-84
2023/12/13 04:43:22;;;;;;;6.20;1.48;;;;;;;;;;5045203;27;90375;-83
2023/12/13 04:45:49;;;;;;;3.55;1.40;;;;;;;;;;5047469;27;90812;-83
2023/12/13 04:48:15;;;;;;;4.30;1.40;;;;;;;;;;5046580;27;87614;-83
2023/12/13 04:50:42;;;;;;;4.32;1.80;;;;;;;;;;5028339;28;90675;-84
2023/12/13 04:53:09;;;;;;;6.10;1.50;;;;;;;;;;5045178;27;89773;-82
2023/12/13 04:55:36;;;;;;;8.07;1.77;;;;;;;;;;5045461;27;91142;-84
2023/12/13 04:58:03;;;;;;;6.60;1.50;;;;;;;;;;5025629;27;88621;-83
2023/12/13 05:00:29;;;;;;;5.45;1.70;;;;;;;;;;5025965;28;87712;-85
2023/12/13 05:02:56;;;;;;;6.93;1.50;;;;;;;;;;5035631;28;88384;-82
2023/12/13 05:05:22;;;;;;;5.53;1.60;;;;;;;;;;5032117;27;88287;-84
2023/12/13 05:07:49;;;;;;;6.10;1.90;;;;;;;;;;5061265;27;88140;-84
2023/12/13 05:10:16;;;;;;;6.25;1.80;;;;;;;;;;5031575;27;88367;-84
2023/12/13 05:12:42;;;;;;;6.13;1.52;;;;;;;;;;5037803;27;87665;-84
2023/12/13 05:15:09;;;;;;;7.35;1.60;;;;;;;;;;5038601;27;88058;-84
2023/12/13 05:17:35;;;;;;;3.92;1.60;;;;;;;;;;5028408;28;89091;-85
2023/12/13 05:20:03;;;;;;;5.90;1.60;;;;;;;;;;5041845;27;87382;-83
2023/12/13 05:22:30;;;;;;;3.70;1.50;;;;;;;;;;5033219;27;87841;-84
2023/12/13 05:24:57;;;;;;;4.30;1.40;;;;;;;;;;5033177;28;87667;-85
2023/12/13 05:27:24;;;;;;;5.50;1.63;;;;;;;;;;5040591;27;88507;-83
2023/12/13 05:29:51;;;;;;;6.35;1.80;;;;;;;;;;5029524;27;91097;-83
2023/12/13 05:32:17;;;;;;;4.43;1.60;;;;;;;;;;5039265;28;87848;-83
2023/12/13 05:34:44;;;;;;;6.55;1.90;;;;;;;;;;5050424;27;91209;-84
2023/12/13 05:37:11;;;;;;;7.97;1.70;;;;;;;;;;5031947;28;90557;-84
2023/12/13 05:39:37;;;;;;;4.80;1.80;;;;;;;;;;5041099;28;89518;-85
2023/12/13 05:42:04;;;;;;;5.28;1.80;;;;;;;;;;5044032;28;94269;-83
2023/12/13 05:44:30;;;;;;;5.05;1.80;;;;;;;;;;5045794;27;87317;-82
2023/12/13 05:46:57;;;;;;;3.67;1.70;;;;;;;;;;5045524;27;87685;-83
2023/12/13 05:49:23;;;;;;;6.72;1.90;;;;;;;;;;5049055;27;87975;-82
2023/12/13 05:51:50;;;;;;;6.35;1.90;;;;;;;;;;5026081;27;89491;-81
2023/12/13 05:54:17;;;;;;;4.43;1.70;;;;;;;;;;5045600;27;89478;-83
2023/12/13 05:56:44;;;;;;;3.97;1.73;;;;;;;;;;5031751;28;90627;-83
2023/12/13 05:59:10;;;;;;;3.70;1.77;;;;;;;;;;5020973;28;87923;-84
2023/12/13 06:01:37;;;;;;;5.75;2.10;;;;;;;;;;5020542;28;88406;-83
2023/12/13 06:04:04;;;;;;;7.15;2.05;;;;;;;;;;5024849;28;93097;-84
2023/12/13 06:06:31;;;;;;;5.43;1.90;;;;;;;;;;5060815;27;88948;-83
2023/12/13 06:08:58;;;;;;;5.95;1.92;;;;;;;;;;5034358;28;88380;-84
2023/12/13 06:11:25;;;;;;;6.13;2.05;;;;;;;;;;5043823;27;88691;-84
2023/12/13 06:13:51;;;;;;;6.60;2.13;;;;;;;;;;5024785;27;90038;-83
2023/12/13 06:16:20;;;;;;;5.88;2.00;;;;;;;;;;5029872;28;92125;-84
2023/12/13 06:18:47;;;;;;;6.45;2.08;;;;;;;;;;5034207;27;88796;-84
2023/12/13 06:21:13;;;;;;;7.47;2.20;;;;;;;;;;5039145;27;88918;-83
2023/12/13 06:23:40;;;;;;;5.72;2.00;;;;;;;;;;5026525;27;91605;-84
2023/12/13 06:26:06;;;;;;;5.47;2.03;;;;;;;;;;5039775;28;87868;-85
2023/12/13 06:28:33;;;;;;;5.82;2.03;;;;;;;;;;5032241;28;88425;-85
2023/12/13 06:31:00;;;;;;;7.78;2.08;;;;;;;;;;5032326;28;90849;-84
2023/12/13 06:33:27;;;;;;;6.65;2.03;;;;;;;;;;5010410;28;89705;-83
2023/12/13 06:35:54;;;;;;;6.18;2.00;;;;;;;;;;5041110;27;89096;-84
2023/12/13 06:38:21;;;;;;;8.25;2.13;;;;;;;;;;5029787;28;88814;-83
2023/12/13 06:40:47;;;;;;;7.50;2.30;;;;;;;;;;5043838;27;88355;-83
2023/12/13 06:43:16;;;;;;;8.65;2.17;;;;;;;;;;5030579;27;91335;-84
2023/12/13 06:45:43;;;;;;;8.82;2.20;;;;;;;;;;5039689;28;96454;-84
2023/12/13 06:48:10;;;;;;;5.70;1.92;;;;;;;;;;5043855;27;92137;-85
2023/12/13 06:50:37;;;;;;;7.35;2.10;;;;;;;;;;5028695;28;88419;-84
2023/12/13 06:53:04;;;;;;;7.05;2.03;;;;;;;;;;5025647;28;87640;-82
2023/12/13 06:55:31;;;;;;;7.50;1.95;;;;;;;;;;5014162;28;88307;-85
2023/12/13 06:57:57;;;;;;;5.40;2.00;;;;;;;;;;5027530;27;87176;-84
2023/12/13 07:00:27;;;;;;;7.53;2.20;;;;;;;;;;5040354;28;90163;-84
2023/12/13 07:02:54;;;;;;;5.95;2.20;;;;;;;;;;5027476;28;88239;-84
2023/12/13 07:05:21;;;;;;;5.25;1.92;;;;;;;;;;5041983;27;88462;-84
2023/12/13 07:07:48;;;;;;;;;;;;;;;;;;5047961;27;89067;-85
2023/12/13 07:10:15;;;;;;;5.90;2.08;;;;;;;;;;5032075;28;89978;-85
2023/12/13 07:12:42;;;;;;;5.80;1.98;;;;;;;;;;5047849;27;87645;-83
2023/12/13 07:15:11;;;;;;;7.80;2.25;;;;;;;;;;5047028;27;87974;-82
2023/12/13 07:17:42;;;;;;;7.13;2.30;;;;;;;;;;5050779;27;88356;-82
2023/12/13 07:20:12;;;;;;;7.80;2.28;;;;;;;;;;5036135;27;89864;-81
2023/12/13 07:22:39;;;;;;;7.43;2.10;;;;;;;;;;5048238;27;88321;-81
2023/12/13 07:25:06;;;;;;;7.43;2.10;;;;;;;;;;5046197;27;89595;-79
2023/12/13 07:27:33;;;;;;;9.75;2.47;;;;;;;;;;5046863;27;91779;-79
2023/12/13 07:30:05;;;;;;;6.32;2.20;;;;;;;;;;5046810;27;89717;-80
2023/12/13 07:32:33;;;;;;;6.82;2.20;;;;;;;;;;5049126;27;89620;-79
2023/12/13 07:35:03;;;;;;;6.18;2.30;;;;;;;;;;5048511;27;87857;-82
2023/12/13 07:37:30;;;;;;;6.35;2.10;;;;;;;;;;5046485;27;91319;-80
2023/12/13 07:39:57;;;;;;;8.10;2.38;;;;;;;;;;5049443;27;87798;-81
2023/12/13 07:42:24;;;;;;;6.32;1.95;;;;;;;;;;5043127;27;89698;-81
2023/12/13 07:44:51;;;;;;;5.93;2.03;;;;;;;;;;5044460;27;87982;-81
2023/12/13 07:47:17;;;;;;;8.00;2.28;;;;;;;;;;5047917;27;88274;-79
2023/12/13 07:49:44;;;;;;;5.53;2.22;;;;;;;;;;5044780;27;88357;-80
2023/12/13 07:52:12;;;;;;;6.15;2.10;;;;;;;;;;5045472;27;89331;-80
2023/12/13 07:54:38;;;;;;;;;;;;;;;;;;5046998;27;88483;-81
2023/12/13 07:57:05;;;;;;;7.15;2.10;;;;;;;;;;5039546;28;108452;-80
2023/12/13 07:59:31;;;;;;;5.75;2.28;;;;;;;;;;5013582;27;87733;-80
2023/12/13 08:01:58;;;;;;;4.90;2.00;;;;;;;;;;5012595;27;90667;-80
2023/12/13 08:04:25;;;;;;;4.95;1.90;;;;;;;;;;5039424;28;87676;-80
2023/12/13 08:06:52;;;;;;;5.53;1.92;;;;;;;;;;5024963;28;87928;-80
2023/12/13 08:09:19;;;;;;;4.72;1.90;;;;;;;;;;5025863;27;88914;-80
2023/12/13 08:11:49;;;;;;;4.95;1.80;;;;;;;;;;5025504;27;87599;-80
2023/12/13 08:14:15;;;;;;;7.13;1.77;;;;;;;;;;5023991;28;89424;-81
2023/12/13 08:16:43;;;;;;;4.97;1.85;;;;;;;;;;5024802;27;88236;-81
2023/12/13 08:19:09;;;;;;;6.10;1.88;;;;;;;;;;5024686;27;88742;-81
2023/12/13 08:21:40;;;;;;;6.90;2.03;;;;;;;;;;5026944;28;88743;-81
2023/12/13 08:24:09;;;;;;;6.28;2.05;;;;;;;;;;5043646;28;91488;-80
2023/12/13 08:26:36;;;;;;;5.18;1.83;;;;;;;;;;5044014;28;88439;-81
2023/12/13 08:29:05;;;;;;;6.82;1.90;;;;;;;;;;5027167;28;90992;-82
2023/12/13 08:31:33;;;;;;;5.78;1.90;;;;;;;;;;5027338;28;89505;-80
2023/12/13 08:34:00;;;;;;;6.53;1.98;;;;;;;;;;5043092;27;90788;-81
2023/12/13 08:36:27;;;;;;;8.05;2.10;;;;;;;;;;5043588;28;90534;-79
2023/12/13 08:38:54;;;;;;;6.18;2.10;;;;;;;;;;5042870;28;88569;-82
2023/12/13 08:41:21;;;;;;;7.05;2.05;;;;;;;;;;5029714;27;88069;-82
2023/12/13 08:43:48;;;;;;;7.68;1.90;;;;;;;;;;5024165;27;89352;-80
2023/12/13 08:46:14;;;;;;;5.00;2.03;;;;;;;;;;5023820;27;89044;-81
2023/12/13 08:48:41;;;;;;;6.47;2.05;;;;;;;;;;5023638;27;88631;-80
2023/12/13 08:51:08;;;;;;;6.13;1.80;;;;;;;;;;5023197;27;89588;-81
2023/12/13 08:53:34;;;;;;;5.38;2.03;;;;;;;;;;5023558;27;88067;-80
2023/12/13 08:56:01;;;;;;;5.40;1.83;;;;;;;;;;5024409;27;89482;-80
2023/12/13 08:58:31;;;;;;;6.95;2.10;;;;;;;;;;5022745;28;89314;-81
2023/12/13 09:00:58;;;;;;;5.03;1.65;;;;;;;;;;5034984;27;88057;-80
2023/12/13 09:03:25;;;;;;;;;;;;;;;;;;5030358;27;88110;-79
2023/12/13 09:05:52;;;;;;;4.05;1.67;;;;;;;;;;5026406;28;94059;-79
2023/12/13 09:08:18;;;;;;;5.13;1.90;;;;;;;;;;5023387;28;89043;-80
2023/12/13 09:10:46;;;;;;;5.22;2.00;;;;;;;;;;5024835;28;87963;-80
2023/12/13 09:13:13;;;;;;;6.18;2.17;;;;;;;;;;5022547;28;89764;-79
2023/12/13 09:15:42;;;;;;;5.28;1.90;;;;;;;;;;5022698;28;90919;-80
2023/12/13 09:18:09;;;;;;;3.95;1.90;;;;;;;;;;5023494;28;89436;-79
2023/12/13 09:20:35;;;;;;;5.72;1.98;;;;;;;;;;5006173;28;89557;-79
2023/12/13 09:23:02;;;;;;;5.32;1.77;;;;;;;;;;5036063;27;88577;-80
2023/12/13 09:25:28;;;;;;;6.57;1.88;;;;;;;;;;5044997;27;87414;-78
2023/12/13 09:27:55;;;;;;;4.45;1.88;;;;;;;;;;5045873;27;90067;-80
2023/12/13 09:30:22;;;;;;;6.13;1.70;;;;;;;;;;5042924;28;87930;-80
2023/12/13 09:32:50;;;;;;;5.95;2.00;;;;;;;;;;5043050;27;90939;-80
2023/12/13 09:35:18;;;;;;;3.88;1.85;;;;;;;;;;5044220;27;88277;-79
2023/12/13 09:37:44;;;;;;;;;;;;;;;;;;5044171;27;87509;-80
2023/12/13 09:40:18;;;;;;;5.38;2.00;;;;;;;;;;5045647;27;88169;-80
2023/12/13 09:42:48;;;;;;;;;;;;;;;;;;5045537;27;88167;-79
2023/12/13 09:45:22;;;;;;;5.20;1.77;;;;;;;;;;5044844;27;88246;-79
2023/12/13 09:47:51;;;;;;;5.43;1.70;;;;;;;;;;5042524;27;88071;-79
2023/12/13 09:50:19;;;;;;;4.97;1.80;;;;;;;;;;5046172;27;87570;-79
2023/12/13 09:52:49;;;;;;;4.63;1.90;;;;;;;;;;5020855;28;87869;-79
2023/12/13 09:55:17;;;;;;;3.85;1.80;;;;;;;;;;5015300;28;90290;-79
2023/12/13 09:57:44;;;;;;;3.85;1.80;;;;;;;;;;5012452;28;89706;-79
2023/12/13 10:00:17;;;;;;;5.18;1.95;;;;;;;;;;5024044;27;89233;-79
2023/12/13 10:02:45;;;;;;;6.35;1.85;;;;;;;;;;5023379;27;89019;-80
2023/12/13 10:05:12;;;;;;;3.95;1.70;;;;;;;;;;5020776;28;89105;-79
2023/12/13 10:07:39;;;;;;;5.90;2.13;;;;;;;;;;5022576;27;89776;-80
2023/12/13 10:10:06;;;;;;;34.00;3.45;;;;;;;;;;5025645;27;90217;-81
2023/12/13 10:12:35;;;;;;;4.70;1.85;;;;;;;;;;5017165;28;88336;-82
2023/12/13 10:15:10;;;;;;;5.68;1.88;;;;;;;;;;5034462;27;88041;-84
2023/12/13 10:17:39;;;;;;;5.00;1.85;;;;;;;;;;5024330;28;87602;-83
2023/12/13 10:20:07;;;;;;;6.43;1.80;;;;;;;;;;5004200;28;94253;-82
2023/12/13 10:22:34;;;;;;;5.20;1.60;;;;;;;;;;5021126;28;89351;-82
2023/12/13 10:25:02;;;;;;;6.10;2.10;;;;;;;;;;5022739;27;87889;-82
2023/12/13 10:27:28;;;;;;;5.63;1.73;;;;;;;;;;5022803;27;87968;-82
2023/12/13 10:29:55;;;;;;;5.63;1.80;;;;;;;;;;5020331;27;90323;-81
2023/12/13 10:32:22;;;;;;;5.35;1.90;;;;;;;;;;5024067;28;88721;-83
2023/12/13 10:34:48;;;;;;;5.22;1.80;;;;;;;;;;5024889;28;90523;-82
2023/12/13 10:37:17;;;;;;;4.78;1.67;;;;;;;;;;5039459;27;87869;-83
2023/12/13 10:39:44;;;;;;;6.03;1.90;;;;;;;;;;5028459;27;87858;-82
2023/12/13 10:42:15;;;;;;;6.38;1.83;;;;;;;;;;5018765;28;90583;-82
2023/12/13 10:44:44;;;;;;;4.82;2.03;;;;;;;;;;5032839;27;88952;-82
2023/12/13 10:47:12;;;;;;;5.95;2.22;;;;;;;;;;5025870;27;88896;-81
2023/12/13 10:49:39;;;;;;;7.88;2.40;;;;;;;;;;5025079;27;88059;-82
2023/12/13 10:52:06;;;;;;;;;;;;;;;;;;5024029;27;88743;-83
2023/12/13 10:54:33;;;;;;;5.85;2.38;;;;;;;;;;5045601;27;88507;-81
2023/12/13 10:57:00;;;;;;;5.97;2.30;;;;;;;;;;5024450;27;88162;-81
2023/12/13 10:59:26;;;;;;;5.93;2.03;;;;;;;;;;5007054;28;90109;-80
2023/12/13 11:01:54;;;;;;;6.35;2.00;;;;;;;;;;5036371;27;92769;-81
2023/12/13 11:04:21;;;;;;;5.88;1.80;;;;;;;;;;5021911;28;91650;-82
2023/12/13 11:06:47;;;;;;;6.82;2.25;;;;;;;;;;5030598;28;94094;-81
2023/12/13 11:09:17;;;;;;;5.75;2.20;;;;;;;;;;5027378;28;93062;-82
2023/12/13 11:11:44;;;;;;;7.13;1.98;;;;;;;;;;5020452;27;94945;-80
2023/12/13 11:14:11;;;;;;;5.72;2.20;;;;;;;;;;5041447;28;97902;-80
2023/12/13 11:16:37;;;;;;;;;;;;;;;;;;5036196;28;93091;-81
2023/12/13 11:19:04;;;;;;;5.70;2.17;;;;;;;;;;5024376;27;102299;-81
2023/12/13 11:21:32;;;;;;;6.40;2.10;;;;;;;;;;5036386;28;92649;-82
2023/12/13 11:24:22;;;;;;;5.75;1.90;;;;;;;;;;5021066;27;92172;-81
2023/12/13 11:26:50;;;;;;;6.43;2.05;;;;;;;;;;5030882;28;95369;-81
2023/12/13 11:29:21;;;;;;;4.40;1.92;;;;;;;;;;5028778;27;92637;-81
2023/12/13 11:31:48;;;;;;;5.07;2.10;;;;;;;;;;5036851;27;92417;-80
2023/12/13 11:34:16;;;;;;;6.40;2.20;;;;;;;;;;5025561;28;92756;-80
2023/12/13 11:36:42;;;;;;;5.45;2.30;;;;;;;;;;5036971;27;95047;-81
2023/12/13 11:39:09;;;;;;;6.47;2.20;;;;;;;;;;5042055;27;92414;-80
2023/12/13 11:41:36;;;;;;;5.55;2.10;;;;;;;;;;5038887;27;94231;-80
2023/12/13 11:44:05;;;;;;;4.82;1.80;;;;;;;;;;5041736;27;92178;-80
2023/12/13 11:46:32;;;;;;;5.18;2.05;;;;;;;;;;5041233;27;92437;-81
2023/12/13 11:48:58;;;;;;;5.10;2.15;;;;;;;;;;5041277;27;92723;-81
2023/12/13 11:51:25;;;;;;;5.80;2.30;;;;;;;;;;5040520;27;92418;-81
2023/12/13 11:53:52;;;;;;;5.55;2.10;;;;;;;;;;5039452;27;94856;-80
2023/12/13 11:56:21;;;;;;;4.22;1.80;;;;;;;;;;5042220;27;92705;-79
2023/12/13 11:58:49;;;;;;;5.28;1.80;;;;;;;;;;5036162;28;92770;-80
2023/12/13 12:01:17;;;;;;;5.63;1.83;;;;;;;;;;5024192;28;94750;-80
2023/12/13 12:03:44;;;;;;;3.35;1.67;;;;;;;;;;5019135;28;92142;-81
2023/12/13 12:06:14;;;;;;;3.92;1.70;;;;;;;;;;5001931;28;95152;-78
2023/12/13 12:08:42;;;;;;;3.42;1.70;;;;;;;;;;5002035;28;94402;-80
2023/12/13 12:11:09;;;;;;;5.03;2.00;;;;;;;;;;5020161;27;92657;-81
2023/12/13 12:13:38;;;;;;;4.90;1.70;;;;;;;;;;5018580;28;93867;-80
2023/12/13 12:16:05;;;;;;;4.75;1.83;;;;;;;;;;5010604;28;98643;-81
2023/12/13 12:18:31;;;;;;;4.65;1.77;;;;;;;;;;5022099;28;91388;-81
2023/12/13 12:20:58;;;;;;;5.22;1.90;;;;;;;;;;5006065;28;93985;-81
2023/12/13 12:23:25;;;;;;;4.18;1.70;;;;;;;;;;5021664;27;92981;-79
2023/12/13 12:25:53;;;;;;;4.22;1.70;;;;;;;;;;5016819;27;94877;-81
2023/12/13 12:28:20;;;;;;;4.35;2.03;;;;;;;;;;5031079;27;92899;-81
2023/12/13 12:30:46;;;;;;;4.88;1.60;;;;;;;;;;5027702;28;92426;-80
2023/12/13 12:33:13;;;;;;;3.90;1.70;;;;;;;;;;5029191;28;92853;-80
2023/12/13 12:35:40;;;;;;;4.93;1.80;;;;;;;;;;5028961;27;93401;-80
2023/12/13 12:38:08;;;;;;;4.50;1.80;;;;;;;;;;5003688;28;92372;-80
2023/12/13 12:40:35;;;;;;;4.63;1.88;;;;;;;;;;5014954;28;93137;-81
2023/12/13 12:43:01;;;;;;;4.13;1.70;;;;;;;;;;5018884;27;92658;-81
2023/12/13 12:45:28;;;;;;;5.60;1.83;;;;;;;;;;5015875;28;92283;-81
2023/12/13 12:47:55;;;;;;;;;;;;;;;;;;5017470;27;92764;-81
2023/12/13 12:50:22;;;;;;;3.65;1.67;;;;;;;;;;5006731;28;94947;-81
2023/12/13 12:52:48;;;;;;;3.67;1.83;;;;;;;;;;5019809;27;94969;-81
2023/12/13 12:55:15;;;;;;;3.28;1.60;;;;;;;;;;5018773;28;92204;-79
2023/12/13 12:57:42;;;;;;;5.65;1.92;;;;;;;;;;5018269;27;92562;-79
2023/12/13 13:00:09;;;;;;;4.25;1.70;;;;;;;;;;5019748;27;92595;-81
2023/12/13 13:02:35;;;;;;;4.57;1.80;;;;;;;;;;5002044;28;95774;-81
2023/12/13 13:05:02;;;;;;;4.57;1.70;;;;;;;;;;5021022;28;92301;-79
2023/12/13 13:07:29;;;;;;;3.17;1.50;;;;;;;;;;5021023;28;92045;-81
2023/12/13 13:09:55;;;;;;;6.30;1.80;;;;;;;;;;5037759;27;92165;-79
2023/12/13 13:12:22;;;;;;;3.80;1.60;;;;;;;;;;5039376;27;95093;-79
2023/12/13 13:14:49;;;;;;;4.97;1.70;;;;;;;;;;5035563;27;96444;-80
2023/12/13 13:17:16;;;;;;;5.50;1.90;;;;;;;;;;5005703;28;92326;-80
2023/12/13 13:19:43;;;;;;;4.70;1.83;;;;;;;;;;5001056;27;92589;-81
2023/12/13 13:22:11;;;;;;;3.58;1.67;;;;;;;;;;5039820;27;92743;-81
2023/12/13 13:24:48;;;;;;;4.13;1.70;;;;;;;;;;5039794;27;92637;-81
2023/12/13 13:27:15;;;;;;;3.25;1.50;;;;;;;;;;5042934;28;94684;-79
2023/12/13 13:29:53;;;;;;;5.25;1.80;;;;;;;;;;5037782;27;94903;-81
2023/12/13 13:32:20;;;;;;;4.65;1.88;;;;;;;;;;5041828;27;92748;-81
2023/12/13 13:34:46;;;;;;;4.07;1.70;;;;;;;;;;5038495;27;93284;-79
2023/12/13 13:37:14;;;;;;;4.93;1.60;;;;;;;;;;5041190;27;92200;-80
2023/12/13 13:39:42;;;;;;;4.45;1.75;;;;;;;;;;5020600;27;94873;-80
2023/12/13 13:42:09;;;;;;;4.22;1.70;;;;;;;;;;5022930;28;92759;-80
2023/12/13 13:44:40;;;;;;;4.03;1.65;;;;;;;;;;5039311;27;94166;-80
2023/12/13 13:47:08;;;;;;;5.07;1.73;;;;;;;;;;5041328;27;92738;-80
2023/12/13 13:49:35;;;;;;;4.85;1.70;;;;;;;;;;5042693;27;92905;-81
2023/12/13 13:52:02;;;;;;;4.65;1.70;;;;;;;;;;5040591;27;92477;-82
2023/12/13 13:54:29;;;;;;;5.75;1.88;;;;;;;;;;5039460;27;94945;-82
2023/12/13 13:56:56;;;;;;;5.47;1.90;;;;;;;;;;5040014;27;91796;-80
2023/12/13 13:59:22;;;;;;;4.53;1.80;;;;;;;;;;5041275;27;92509;-82
2023/12/13 14:01:52;;;;;;;5.40;1.73;;;;;;;;;;5039192;27;92745;-80
2023/12/13 14:04:18;;;;;;;5.65;1.80;;;;;;;;;;5038154;27;96102;-81
2023/12/13 14:06:46;;;;;;;6.63;2.08;;;;;;;;;;5038907;27;95113;-79
2023/12/13 14:09:13;;;;;;;5.30;1.90;;;;;;;;;;5040681;27;93524;-82
2023/12/13 14:11:40;;;;;;;6.13;1.60;;;;;;;;;;5041841;27;92414;-80
2023/12/13 14:14:07;;;;;;;4.82;1.73;;;;;;;;;;5022650;28;94675;-82
2023/12/13 14:16:34;;;;;;;5.72;1.90;;;;;;;;;;5039881;27;92477;-82
2023/12/13 14:19:05;;;;;;;3.38;1.67;;;;;;;;;;5040263;27;92592;-80
2023/12/13 14:21:32;;;;;;;4.43;1.80;;;;;;;;;;5041196;27;92007;-80
2023/12/13 14:23:59;;;;;;;3.83;1.75;;;;;;;;;;5038102;27;92603;-80
2023/12/13 14:26:26;;;;;;;4.40;1.80;;;;;;;;;;5001758;28;92788;-80
2023/12/13 14:28:53;;;;;;;5.32;1.90;;;;;;;;;;5012806;28;96155;-81
2023/12/13 14:31:23;;;;;;;5.90;1.85;;;;;;;;;;5008244;27;92628;-81
2023/12/13 14:33:51;;;;;;;3.38;1.60;;;;;;;;;;5032762;27;92609;-81
2023/12/13 14:36:18;;;;;;;4.20;1.80;;;;;;;;;;5038711;28;92256;-80
2023/12/13 14:38:44;;;;;;;3.58;1.55;;;;;;;;;;5040352;27;92401;-81
2023/12/13 14:41:11;;;;;;;5.28;1.90;;;;;;;;;;5039460;27;92613;-84
2023/12/13 14:43:38;;;;;;;4.15;1.90;;;;;;;;;;5039470;27;92329;-82
2023/12/13 14:46:04;;;;;;;6.20;2.35;;;;;;;;;;5039565;28;99372;-81